Monday, August 29, 2016, 11:04 PM EDT

KJYO, Leesburg / Godfrey

Location: Leesburg, VA, United States Lat: 39.083
Local Time: 11:04 PM EDT ( 3:04 GMT) Lon: -77.567
Time Zone: US/Eastern Elev: 390 ft

Show me the last for .
Show Decoded

2016-08-29 22:35 METAR KJYO 300235Z AUTO 01005KT 10SM CLR 26/22 A3014 RMK AO2 =
2016-08-29 22:15 METAR KJYO 300215Z AUTO 34004KT 10SM CLR 26/22 A3014 RMK AO2 =
2016-08-29 21:55 METAR KJYO 300155Z AUTO 33003KT 10SM CLR 26/22 A3014 RMK AO2 =
2016-08-29 21:35 METAR KJYO 300135Z AUTO 00000KT 10SM CLR 26/23 A3013 RMK AO2 =
2016-08-29 21:15 METAR KJYO 300115Z AUTO 00000KT 10SM CLR 26/23 A3013 RMK AO2 =
2016-08-29 20:55 METAR KJYO 300055Z AUTO 00000KT 10SM CLR 26/23 A3012 RMK AO2 =
2016-08-29 20:35 METAR KJYO 300035Z AUTO 00000KT 10SM CLR 27/23 A3011 RMK AO2 =
2016-08-29 20:15 METAR KJYO 300015Z AUTO 00000KT 10SM CLR 28/23 A3011 RMK AO2 =
2016-08-29 19:55 METAR KJYO 292355Z AUTO 00000KT 10SM CLR 30/22 A3010 RMK AO2 =
2016-08-29 19:35 METAR KJYO 292335Z AUTO 00000KT 10SM CLR 31/22 A3010 RMK AO2 =
2016-08-29 19:15 METAR KJYO 292315Z AUTO 00000KT 10SM CLR 31/22 A3010 RMK AO2 =
2016-08-29 18:55 METAR KJYO 292255Z AUTO 00000KT 10SM CLR 32/22 A3009 RMK AO2 =
2016-08-29 18:35 METAR KJYO 292235Z AUTO 00000KT 10SM CLR 32/21 A3010 RMK AO2 =
2016-08-29 18:15 METAR KJYO 292215Z AUTO 31003KT 10SM CLR 32/21 A3010 RMK AO2 =
2016-08-29 17:55 METAR KJYO 292155Z AUTO 02003KT 10SM SCT048 32/21 A3010 RMK AO2 =
2016-08-29 17:35 METAR KJYO 292135Z AUTO 34005KT 10SM SCT048 33/22 A3010 RMK AO2 =
2016-08-29 17:15 METAR KJYO 292115Z AUTO 35004KT 10SM SCT048 33/22 A3010 RMK AO2 =
2016-08-29 16:55 METAR KJYO 292055Z AUTO 30004KT 10SM SCT048 32/22 A3010 RMK AO2 =
2016-08-29 16:35 METAR KJYO 292035Z AUTO 30010G17KT 280V340 10SM SCT047 32/22 A3011 RMK AO2 =
2016-08-29 16:15 METAR KJYO 292015Z AUTO 00000KT 10SM SCT047 33/22 A3012 RMK AO2 =
2016-08-29 15:55 METAR KJYO 291955Z AUTO 00000KT 10SM BKN049 BKN070 33/22 A3012 RMK AO2 =
2016-08-29 15:35 METAR KJYO 291935Z AUTO 04003KT 10SM SCT049 SCT070 33/21 A3013 RMK AO2 =
2016-08-29 15:15 METAR KJYO 291915Z AUTO 34004KT 10SM CLR 33/21 A3014 RMK AO2 =
2016-08-29 14:55 METAR KJYO 291855Z AUTO 35005KT 10SM CLR 33/21 A3015 RMK AO2 =
2016-08-29 14:35 METAR KJYO 291835Z AUTO 34004KT 10SM SCT048 33/21 A3016 RMK AO2 =
2016-08-29 14:15 METAR KJYO 291815Z AUTO 00000KT 10SM SCT046 32/21 A3016 RMK AO2 =
2016-08-29 13:55 METAR KJYO 291755Z AUTO 10003KT 10SM SCT046 32/21 A3018 RMK AO2 =
2016-08-29 13:35 METAR KJYO 291735Z AUTO 01005KT 10SM CLR 32/20 A3018 RMK AO2 =
2016-08-29 13:15 METAR KJYO 291715Z AUTO 00000KT 10SM CLR 31/20 A3018 RMK AO2 =
2016-08-29 12:55 METAR KJYO 291655Z AUTO 01006KT 10SM CLR 31/22 A3018 RMK AO2 =
2016-08-29 12:35 METAR KJYO 291635Z AUTO 35004KT 10SM CLR 31/22 A3018 RMK AO2 =
2016-08-29 12:15 METAR KJYO 291615Z AUTO 01006KT 10SM CLR 31/21 A3019 RMK AO2 =
2016-08-29 11:55 METAR KJYO 291555Z AUTO 02005KT 10SM CLR 30/21 A3019 RMK AO2 =
2016-08-29 11:35 METAR KJYO 291535Z AUTO 00000KT 10SM CLR 30/22 A3019 RMK AO2 =
2016-08-29 11:15 METAR KJYO 291515Z AUTO 02005KT 10SM CLR 29/22 A3019 RMK AO2 =
2016-08-29 10:55 METAR KJYO 291455Z AUTO 01007KT 10SM CLR 29/21 A3020 RMK AO2 =
2016-08-29 10:35 METAR KJYO 291435Z AUTO 36007KT 10SM CLR 28/21 A3020 RMK AO2 =
2016-08-29 10:15 METAR KJYO 291415Z AUTO 35005KT 300V360 10SM CLR 28/22 A3020 RMK AO2 =
2016-08-29 09:55 METAR KJYO 291355Z AUTO 00000KT 10SM CLR 27/22 A3020 RMK AO2 =
2016-08-29 09:35 METAR KJYO 291335Z AUTO 34004KT 10SM CLR 26/22 A3020 RMK AO2 =
2016-08-29 09:15 METAR KJYO 291315Z AUTO 00000KT 10SM CLR 26/21 A3020 RMK AO2 =
2016-08-29 08:55 METAR KJYO 291255Z AUTO 00000KT 10SM CLR 25/21 A3021 RMK AO2 =
2016-08-29 08:35 METAR KJYO 291235Z AUTO 31004KT 10SM CLR 24/21 A3021 RMK AO2 =
2016-08-29 08:15 METAR KJYO 291215Z AUTO 30005KT 10SM CLR 22/21 A3020 RMK AO2 =
2016-08-29 07:55 METAR KJYO 291155Z AUTO 31004KT 10SM CLR 22/21 A3020 RMK AO2 =
2016-08-29 07:35 METAR KJYO 291135Z AUTO 30005KT 10SM CLR 21/21 A3020 RMK AO2 =
2016-08-29 07:15 METAR KJYO 291115Z AUTO 30004KT 10SM CLR 21/21 A3019 RMK AO2 =
2016-08-29 06:55 METAR KJYO 291055Z AUTO 34004KT 10SM CLR 21/20 A3019 RMK AO2 =
2016-08-29 06:35 METAR KJYO 291035Z AUTO 30005KT 10SM CLR 21/20 A3018 RMK AO2 =
2016-08-29 06:15 METAR KJYO 291015Z AUTO 00000KT 10SM CLR 21/20 A3017 RMK AO2 =
2016-08-29 05:55 METAR KJYO 290955Z AUTO 35005KT 10SM CLR 20/20 A3016 RMK AO2 =
2016-08-29 05:35 METAR KJYO 290935Z AUTO 00000KT 10SM CLR 21/20 A3015 RMK AO2 =
2016-08-29 05:15 METAR KJYO 290915Z AUTO 00000KT 10SM CLR 21/20 A3015 RMK AO2 =
2016-08-29 04:55 METAR KJYO 290855Z AUTO 00000KT 10SM CLR 21/20 A3015 RMK AO2 =
2016-08-29 04:35 METAR KJYO 290835Z AUTO 33004KT 10SM CLR 21/20 A3016 RMK AO2 =
2016-08-29 04:15 METAR KJYO 290815Z AUTO 34004KT 10SM CLR 20/20 A3014 RMK AO2 =
2016-08-29 03:55 METAR KJYO 290755Z AUTO 24003KT 10SM CLR 20/20 A3014 RMK AO2 =
2016-08-29 03:35 METAR KJYO 290735Z AUTO 21003KT 10SM CLR 21/20 A3014 RMK AO2 =
2016-08-29 03:15 METAR KJYO 290715Z AUTO 00000KT 10SM CLR 21/20 A3016 RMK AO2 =
2016-08-29 02:55 METAR KJYO 290655Z AUTO 17004KT 10SM CLR 21/20 A3016 RMK AO2 =
2016-08-29 02:35 METAR KJYO 290635Z AUTO 00000KT 10SM CLR 21/20 A3018 RMK AO2 =
2016-08-29 02:15 METAR KJYO 290615Z AUTO 00000KT 10SM CLR 22/20 A3018 RMK AO2 =
2016-08-29 01:55 METAR KJYO 290555Z AUTO 00000KT 10SM CLR 21/20 A3019 RMK AO2 =
2016-08-29 01:35 METAR KJYO 290535Z AUTO 00000KT 10SM CLR 21/20 A3020 RMK AO2 =
2016-08-29 01:15 METAR KJYO 290515Z AUTO 19003KT 10SM CLR 21/20 A3021 RMK AO2 =
2016-08-29 00:55 METAR KJYO 290455Z AUTO 00000KT 10SM CLR 22/20 A3021 RMK AO2 =
2016-08-29 00:35 METAR KJYO 290435Z AUTO 00000KT 10SM CLR 22/20 A3022 RMK AO2 =
2016-08-29 00:15 METAR KJYO 290415Z AUTO 35004KT 10SM CLR 22/20 A3022 RMK AO2 =
2016-08-28 23:55 METAR KJYO 290355Z AUTO 26003KT 10SM CLR 23/20 A3022 RMK AO2 =
2016-08-28 23:35 METAR KJYO 290335Z AUTO 00000KT 10SM CLR 22/20 A3022 RMK AO2 =
2016-08-28 23:15 METAR KJYO 290315Z AUTO 29008KT 10SM CLR 23/20 A3023 RMK AO2 =

Support USWX by starting your Amazon purchase here.